sensor_id;sensor_type;location;lat;lon;timestamp;P1;durP1;ratioP1;P2;durP2;ratioP2
17618;SDS011;8928;51.678;6.074;2022-12-07T00:01:14;51.33;;;24.03;;
17618;SDS011;8928;51.678;6.074;2022-12-07T00:04:02;47.47;;;23.57;;
17618;SDS011;8928;51.678;6.074;2022-12-07T00:06:51;47.27;;;23.83;;
17618;SDS011;8928;51.678;6.074;2022-12-07T00:09:38;53.83;;;24.57;;
17618;SDS011;8928;51.678;6.074;2022-12-07T00:12:27;53.33;;;25.20;;
17618;SDS011;8928;51.678;6.074;2022-12-07T00:15:15;52.40;;;24.93;;
17618;SDS011;8928;51.678;6.074;2022-12-07T00:18:02;51.80;;;25.47;;
17618;SDS011;8928;51.678;6.074;2022-12-07T00:20:49;54.57;;;25.73;;
17618;SDS011;8928;51.678;6.074;2022-12-07T00:23:36;60.90;;;25.93;;
17618;SDS011;8928;51.678;6.074;2022-12-07T00:26:25;55.47;;;25.73;;
17618;SDS011;8928;51.678;6.074;2022-12-07T00:29:14;50.53;;;24.37;;
17618;SDS011;8928;51.678;6.074;2022-12-07T00:32:04;59.57;;;25.63;;
17618;SDS011;8928;51.678;6.074;2022-12-07T00:34:51;52.90;;;24.87;;
17618;SDS011;8928;51.678;6.074;2022-12-07T00:37:38;55.37;;;26.00;;
17618;SDS011;8928;51.678;6.074;2022-12-07T00:40:25;54.90;;;24.97;;
17618;SDS011;8928;51.678;6.074;2022-12-07T00:43:12;52.40;;;25.27;;
17618;SDS011;8928;51.678;6.074;2022-12-07T00:45:59;57.73;;;26.47;;
17618;SDS011;8928;51.678;6.074;2022-12-07T00:48:47;50.80;;;24.40;;
17618;SDS011;8928;51.678;6.074;2022-12-07T00:51:35;54.87;;;25.47;;
17618;SDS011;8928;51.678;6.074;2022-12-07T00:54:22;60.97;;;25.63;;
17618;SDS011;8928;51.678;6.074;2022-12-07T00:57:09;59.57;;;25.57;;
17618;SDS011;8928;51.678;6.074;2022-12-07T00:59:56;55.93;;;26.03;;
17618;SDS011;8928;51.678;6.074;2022-12-07T01:02:45;52.80;;;24.83;;
17618;SDS011;8928;51.678;6.074;2022-12-07T01:05:34;60.00;;;26.27;;
17618;SDS011;8928;51.678;6.074;2022-12-07T01:08:21;53.03;;;25.13;;
17618;SDS011;8928;51.678;6.074;2022-12-07T01:11:09;56.87;;;25.97;;
17618;SDS011;8928;51.678;6.074;2022-12-07T01:13:59;55.00;;;25.10;;
17618;SDS011;8928;51.678;6.074;2022-12-07T01:16:47;54.07;;;26.07;;
17618;SDS011;8928;51.678;6.074;2022-12-07T01:19:34;55.87;;;25.90;;
17618;SDS011;8928;51.678;6.074;2022-12-07T01:22:22;55.70;;;25.63;;
17618;SDS011;8928;51.678;6.074;2022-12-07T01:25:10;58.00;;;26.20;;
17618;SDS011;8928;51.678;6.074;2022-12-07T01:27:58;56.93;;;25.50;;
17618;SDS011;8928;51.678;6.074;2022-12-07T01:30:45;58.27;;;25.57;;
17618;SDS011;8928;51.678;6.074;2022-12-07T01:33:42;50.60;;;25.13;;
17618;SDS011;8928;51.678;6.074;2022-12-07T01:36:30;56.53;;;25.50;;
17618;SDS011;8928;51.678;6.074;2022-12-07T01:39:19;66.03;;;26.37;;
17618;SDS011;8928;51.678;6.074;2022-12-07T01:42:08;58.60;;;26.43;;
17618;SDS011;8928;51.678;6.074;2022-12-07T01:48:29;60.17;;;26.60;;
17618;SDS011;8928;51.678;6.074;2022-12-07T01:51:20;57.20;;;25.53;;
17618;SDS011;8928;51.678;6.074;2022-12-07T01:54:07;71.87;;;27.47;;
17618;SDS011;8928;51.678;6.074;2022-12-07T01:56:55;64.90;;;26.37;;
17618;SDS011;8928;51.678;6.074;2022-12-07T01:59:44;56.60;;;26.27;;
17618;SDS011;8928;51.678;6.074;2022-12-07T02:02:34;57.27;;;26.33;;
17618;SDS011;8928;51.678;6.074;2022-12-07T02:05:24;60.17;;;26.73;;
17618;SDS011;8928;51.678;6.074;2022-12-07T02:08:12;58.87;;;24.53;;
17618;SDS011;8928;51.678;6.074;2022-12-07T02:11:00;61.33;;;25.27;;
17618;SDS011;8928;51.678;6.074;2022-12-07T02:13:49;54.40;;;25.10;;
17618;SDS011;8928;51.678;6.074;2022-12-07T02:16:39;61.10;;;27.10;;
17618;SDS011;8928;51.678;6.074;2022-12-07T02:19:51;66.37;;;26.00;;
17618;SDS011;8928;51.678;6.074;2022-12-07T02:23:07;68.70;;;27.53;;
17618;SDS011;8928;51.678;6.074;2022-12-07T02:26:27;65.13;;;26.97;;
17618;SDS011;8928;51.678;6.074;2022-12-07T02:29:51;66.13;;;28.13;;
17618;SDS011;8928;51.678;6.074;2022-12-07T02:32:44;63.33;;;27.10;;
17618;SDS011;8928;51.678;6.074;2022-12-07T02:35:39;64.73;;;27.53;;
17618;SDS011;8928;51.678;6.074;2022-12-07T02:38:29;76.83;;;27.23;;
17618;SDS011;8928;51.678;6.074;2022-12-07T02:41:22;70.67;;;27.20;;
17618;SDS011;8928;51.678;6.074;2022-12-07T02:44:13;69.17;;;27.50;;
17618;SDS011;8928;51.678;6.074;2022-12-07T02:47:06;65.70;;;26.30;;
17618;SDS011;8928;51.678;6.074;2022-12-07T02:49:57;67.47;;;26.30;;
17618;SDS011;8928;51.678;6.074;2022-12-07T02:52:44;68.90;;;27.23;;
17618;SDS011;8928;51.678;6.074;2022-12-07T02:55:32;63.13;;;26.43;;
17618;SDS011;8928;51.678;6.074;2022-12-07T02:58:26;79.77;;;28.23;;
17618;SDS011;8928;51.678;6.074;2022-12-07T03:01:26;72.33;;;27.90;;
17618;SDS011;8928;51.678;6.074;2022-12-07T03:04:21;62.87;;;26.73;;
17618;SDS011;8928;51.678;6.074;2022-12-07T03:07:21;68.27;;;27.67;;
17618;SDS011;8928;51.678;6.074;2022-12-07T03:10:17;85.23;;;28.57;;
17618;SDS011;8928;51.678;6.074;2022-12-07T03:13:12;77.97;;;28.23;;
17618;SDS011;8928;51.678;6.074;2022-12-07T03:16:08;76.60;;;28.43;;
17618;SDS011;8928;51.678;6.074;2022-12-07T03:19:02;70.27;;;28.20;;
17618;SDS011;8928;51.678;6.074;2022-12-07T03:21:54;71.27;;;27.53;;
17618;SDS011;8928;51.678;6.074;2022-12-07T03:24:45;69.23;;;27.37;;
17618;SDS011;8928;51.678;6.074;2022-12-07T03:27:38;68.00;;;26.60;;
17618;SDS011;8928;51.678;6.074;2022-12-07T03:30:30;79.23;;;28.17;;
17618;SDS011;8928;51.678;6.074;2022-12-07T03:33:21;75.90;;;27.13;;
17618;SDS011;8928;51.678;6.074;2022-12-07T03:36:14;70.07;;;26.70;;
17618;SDS011;8928;51.678;6.074;2022-12-07T03:39:11;75.10;;;26.20;;
17618;SDS011;8928;51.678;6.074;2022-12-07T03:42:03;74.30;;;25.13;;
17618;SDS011;8928;51.678;6.074;2022-12-07T03:44:51;67.33;;;25.00;;
17618;SDS011;8928;51.678;6.074;2022-12-07T03:47:41;59.43;;;25.33;;
17618;SDS011;8928;51.678;6.074;2022-12-07T03:50:36;70.87;;;25.80;;
17618;SDS011;8928;51.678;6.074;2022-12-07T03:53:29;65.07;;;26.30;;
17618;SDS011;8928;51.678;6.074;2022-12-07T03:56:22;70.47;;;24.83;;
17618;SDS011;8928;51.678;6.074;2022-12-07T03:59:10;63.97;;;24.80;;
17618;SDS011;8928;51.678;6.074;2022-12-07T04:02:01;64.10;;;24.27;;
17618;SDS011;8928;51.678;6.074;2022-12-07T04:04:50;65.40;;;24.53;;
17618;SDS011;8928;51.678;6.074;2022-12-07T04:07:37;79.00;;;23.93;;
17618;SDS011;8928;51.678;6.074;2022-12-07T04:10:25;62.67;;;24.33;;
17618;SDS011;8928;51.678;6.074;2022-12-07T04:13:13;66.87;;;22.97;;
17618;SDS011;8928;51.678;6.074;2022-12-07T04:16:00;55.23;;;21.73;;
17618;SDS011;8928;51.678;6.074;2022-12-07T04:18:47;56.27;;;22.50;;
17618;SDS011;8928;51.678;6.074;2022-12-07T04:21:34;60.23;;;23.30;;
17618;SDS011;8928;51.678;6.074;2022-12-07T04:24:21;55.27;;;23.20;;
17618;SDS011;8928;51.678;6.074;2022-12-07T04:27:09;63.67;;;23.43;;
17618;SDS011;8928;51.678;6.074;2022-12-07T04:29:57;57.57;;;22.80;;
17618;SDS011;8928;51.678;6.074;2022-12-07T04:32:44;64.07;;;23.60;;
17618;SDS011;8928;51.678;6.074;2022-12-07T04:35:31;63.70;;;23.60;;
17618;SDS011;8928;51.678;6.074;2022-12-07T04:38:18;66.40;;;24.07;;
17618;SDS011;8928;51.678;6.074;2022-12-07T04:41:05;56.33;;;23.63;;
17618;SDS011;8928;51.678;6.074;2022-12-07T04:43:53;57.87;;;22.30;;
17618;SDS011;8928;51.678;6.074;2022-12-07T04:46:45;68.00;;;24.23;;
17618;SDS011;8928;51.678;6.074;2022-12-07T04:49:32;56.13;;;23.37;;
17618;SDS011;8928;51.678;6.074;2022-12-07T04:52:20;55.50;;;22.30;;
17618;SDS011;8928;51.678;6.074;2022-12-07T04:55:07;55.30;;;21.67;;
17618;SDS011;8928;51.678;6.074;2022-12-07T04:57:54;50.17;;;20.60;;
17618;SDS011;8928;51.678;6.074;2022-12-07T05:00:41;57.27;;;21.23;;
17618;SDS011;8928;51.678;6.074;2022-12-07T05:03:30;49.17;;;19.73;;
17618;SDS011;8928;51.678;6.074;2022-12-07T05:06:17;52.77;;;19.93;;
17618;SDS011;8928;51.678;6.074;2022-12-07T05:09:04;50.03;;;18.93;;
17618;SDS011;8928;51.678;6.074;2022-12-07T05:11:51;50.33;;;19.27;;
17618;SDS011;8928;51.678;6.074;2022-12-07T05:14:38;50.60;;;19.00;;
17618;SDS011;8928;51.678;6.074;2022-12-07T05:17:25;54.23;;;19.37;;
17618;SDS011;8928;51.678;6.074;2022-12-07T05:20:14;44.67;;;18.43;;
17618;SDS011;8928;51.678;6.074;2022-12-07T05:23:01;50.07;;;19.13;;
17618;SDS011;8928;51.678;6.074;2022-12-07T05:25:48;52.23;;;19.00;;
17618;SDS011;8928;51.678;6.074;2022-12-07T05:28:35;42.73;;;18.93;;
17618;SDS011;8928;51.678;6.074;2022-12-07T05:31:22;47.73;;;18.67;;
17618;SDS011;8928;51.678;6.074;2022-12-07T05:34:10;55.57;;;18.67;;
17618;SDS011;8928;51.678;6.074;2022-12-07T05:36:59;52.10;;;18.20;;
17618;SDS011;8928;51.678;6.074;2022-12-07T05:39:46;48.83;;;18.53;;
17618;SDS011;8928;51.678;6.074;2022-12-07T05:42:33;56.43;;;18.87;;
17618;SDS011;8928;51.678;6.074;2022-12-07T05:45:20;42.27;;;17.90;;
17618;SDS011;8928;51.678;6.074;2022-12-07T05:48:07;46.00;;;17.87;;
17618;SDS011;8928;51.678;6.074;2022-12-07T05:50:54;41.17;;;16.40;;
17618;SDS011;8928;51.678;6.074;2022-12-07T05:53:43;35.40;;;16.07;;
17618;SDS011;8928;51.678;6.074;2022-12-07T05:56:30;40.67;;;16.07;;
17618;SDS011;8928;51.678;6.074;2022-12-07T05:59:17;39.97;;;15.53;;
17618;SDS011;8928;51.678;6.074;2022-12-07T06:02:11;42.20;;;15.47;;
17618;SDS011;8928;51.678;6.074;2022-12-07T06:04:59;41.53;;;15.60;;
17618;SDS011;8928;51.678;6.074;2022-12-07T06:07:46;38.13;;;15.20;;
17618;SDS011;8928;51.678;6.074;2022-12-07T06:10:35;42.10;;;15.40;;
17618;SDS011;8928;51.678;6.074;2022-12-07T06:13:22;41.37;;;15.07;;
17618;SDS011;8928;51.678;6.074;2022-12-07T06:16:08;44.23;;;15.03;;
17618;SDS011;8928;51.678;6.074;2022-12-07T06:18:55;34.13;;;14.80;;
17618;SDS011;8928;51.678;6.074;2022-12-07T06:21:42;43.93;;;14.57;;
17618;SDS011;8928;51.678;6.074;2022-12-07T06:24:29;39.57;;;13.90;;
17618;SDS011;8928;51.678;6.074;2022-12-07T06:27:17;34.57;;;12.80;;
17618;SDS011;8928;51.678;6.074;2022-12-07T06:30:05;38.73;;;13.70;;
17618;SDS011;8928;51.678;6.074;2022-12-07T06:32:53;38.50;;;13.07;;
17618;SDS011;8928;51.678;6.074;2022-12-07T06:35:41;39.13;;;13.57;;
17618;SDS011;8928;51.678;6.074;2022-12-07T06:38:28;30.67;;;12.53;;
17618;SDS011;8928;51.678;6.074;2022-12-07T06:41:15;36.10;;;13.10;;
17618;SDS011;8928;51.678;6.074;2022-12-07T06:44:03;32.13;;;12.27;;
17618;SDS011;8928;51.678;6.074;2022-12-07T06:46:51;40.27;;;12.67;;
17618;SDS011;8928;51.678;6.074;2022-12-07T06:49:38;36.67;;;11.90;;
17618;SDS011;8928;51.678;6.074;2022-12-07T06:52:25;29.20;;;12.00;;
17618;SDS011;8928;51.678;6.074;2022-12-07T06:55:12;28.03;;;11.47;;
17618;SDS011;8928;51.678;6.074;2022-12-07T06:58:00;29.83;;;10.60;;
17618;SDS011;8928;51.678;6.074;2022-12-07T07:00:48;31.50;;;11.23;;
17618;SDS011;8928;51.678;6.074;2022-12-07T07:03:36;30.03;;;11.07;;
17618;SDS011;8928;51.678;6.074;2022-12-07T07:06:23;32.67;;;10.60;;
17618;SDS011;8928;51.678;6.074;2022-12-07T07:09:10;32.37;;;11.03;;
17618;SDS011;8928;51.678;6.074;2022-12-07T07:11:57;30.83;;;11.17;;
17618;SDS011;8928;51.678;6.074;2022-12-07T07:14:44;43.50;;;12.00;;
17618;SDS011;8928;51.678;6.074;2022-12-07T07:17:32;30.97;;;11.03;;
17618;SDS011;8928;51.678;6.074;2022-12-07T07:20:19;34.03;;;11.93;;
17618;SDS011;8928;51.678;6.074;2022-12-07T07:23:07;30.03;;;12.07;;
17618;SDS011;8928;51.678;6.074;2022-12-07T07:25:54;36.10;;;12.67;;
17618;SDS011;8928;51.678;6.074;2022-12-07T07:28:41;30.53;;;13.43;;
17618;SDS011;8928;51.678;6.074;2022-12-07T07:31:28;39.60;;;13.90;;
17618;SDS011;8928;51.678;6.074;2022-12-07T07:34:17;37.63;;;13.47;;
17618;SDS011;8928;51.678;6.074;2022-12-07T07:37:04;39.67;;;14.40;;
17618;SDS011;8928;51.678;6.074;2022-12-07T07:39:51;30.70;;;13.30;;
17618;SDS011;8928;51.678;6.074;2022-12-07T07:42:38;43.17;;;14.20;;
17618;SDS011;8928;51.678;6.074;2022-12-07T07:45:26;45.37;;;14.13;;
17618;SDS011;8928;51.678;6.074;2022-12-07T07:48:13;37.53;;;14.07;;
17618;SDS011;8928;51.678;6.074;2022-12-07T07:51:02;38.17;;;13.73;;
17618;SDS011;8928;51.678;6.074;2022-12-07T07:53:51;44.17;;;14.33;;
17618;SDS011;8928;51.678;6.074;2022-12-07T07:56:38;37.23;;;13.43;;
17618;SDS011;8928;51.678;6.074;2022-12-07T07:59:25;37.83;;;14.10;;
17618;SDS011;8928;51.678;6.074;2022-12-07T08:02:13;38.30;;;14.00;;
17618;SDS011;8928;51.678;6.074;2022-12-07T08:05:02;39.60;;;14.40;;
17618;SDS011;8928;51.678;6.074;2022-12-07T08:07:50;40.17;;;14.40;;
17618;SDS011;8928;51.678;6.074;2022-12-07T08:10:37;36.87;;;13.63;;
17618;SDS011;8928;51.678;6.074;2022-12-07T08:13:25;44.33;;;12.63;;
17618;SDS011;8928;51.678;6.074;2022-12-07T08:16:12;40.57;;;13.27;;
17618;SDS011;8928;51.678;6.074;2022-12-07T08:19:00;43.77;;;12.83;;
17618;SDS011;8928;51.678;6.074;2022-12-07T08:21:47;30.00;;;12.20;;
17618;SDS011;8928;51.678;6.074;2022-12-07T08:24:35;35.60;;;12.63;;
17618;SDS011;8928;51.678;6.074;2022-12-07T08:27:22;34.23;;;12.63;;
17618;SDS011;8928;51.678;6.074;2022-12-07T08:30:12;36.53;;;12.47;;
17618;SDS011;8928;51.678;6.074;2022-12-07T08:32:59;35.70;;;12.20;;
17618;SDS011;8928;51.678;6.074;2022-12-07T08:35:46;42.30;;;12.10;;
17618;SDS011;8928;51.678;6.074;2022-12-07T08:38:33;34.03;;;12.37;;
17618;SDS011;8928;51.678;6.074;2022-12-07T08:41:22;36.60;;;12.03;;
17618;SDS011;8928;51.678;6.074;2022-12-07T08:44:09;35.33;;;12.33;;
17618;SDS011;8928;51.678;6.074;2022-12-07T08:46:57;36.63;;;11.80;;
17618;SDS011;8928;51.678;6.074;2022-12-07T08:49:47;30.03;;;11.63;;
17618;SDS011;8928;51.678;6.074;2022-12-07T08:52:37;40.93;;;11.97;;
17618;SDS011;8928;51.678;6.074;2022-12-07T08:55:26;34.93;;;11.87;;
17618;SDS011;8928;51.678;6.074;2022-12-07T08:58:16;36.27;;;11.80;;
17618;SDS011;8928;51.678;6.074;2022-12-07T09:01:03;40.97;;;13.77;;
17618;SDS011;8928;51.678;6.074;2022-12-07T09:03:51;42.00;;;13.40;;
17618;SDS011;8928;51.678;6.074;2022-12-07T09:06:38;35.23;;;13.07;;
17618;SDS011;8928;51.678;6.074;2022-12-07T09:09:25;41.27;;;12.77;;
17618;SDS011;8928;51.678;6.074;2022-12-07T09:12:12;41.00;;;12.60;;
17618;SDS011;8928;51.678;6.074;2022-12-07T09:15:00;39.80;;;13.17;;
17618;SDS011;8928;51.678;6.074;2022-12-07T09:17:47;44.77;;;13.60;;
17618;SDS011;8928;51.678;6.074;2022-12-07T09:20:34;44.13;;;13.90;;
17618;SDS011;8928;51.678;6.074;2022-12-07T09:23:21;38.50;;;14.57;;
17618;SDS011;8928;51.678;6.074;2022-12-07T09:26:09;47.57;;;14.77;;
17618;SDS011;8928;51.678;6.074;2022-12-07T09:28:56;44.77;;;14.80;;
17618;SDS011;8928;51.678;6.074;2022-12-07T09:31:45;49.30;;;15.00;;
17618;SDS011;8928;51.678;6.074;2022-12-07T09:34:32;51.40;;;14.67;;
17618;SDS011;8928;51.678;6.074;2022-12-07T09:37:19;40.17;;;14.83;;
17618;SDS011;8928;51.678;6.074;2022-12-07T09:40:06;46.93;;;14.73;;
17618;SDS011;8928;51.678;6.074;2022-12-07T09:42:54;49.70;;;15.13;;
17618;SDS011;8928;51.678;6.074;2022-12-07T09:45:42;41.03;;;14.80;;
17618;SDS011;8928;51.678;6.074;2022-12-07T09:48:33;49.93;;;15.13;;
17618;SDS011;8928;51.678;6.074;2022-12-07T09:51:23;44.47;;;15.60;;
17618;SDS011;8928;51.678;6.074;2022-12-07T09:54:11;44.10;;;15.33;;
17618;SDS011;8928;51.678;6.074;2022-12-07T09:57:00;37.17;;;14.20;;
17618;SDS011;8928;51.678;6.074;2022-12-07T09:59:47;40.13;;;13.93;;
17618;SDS011;8928;51.678;6.074;2022-12-07T10:02:35;39.40;;;13.37;;
17618;SDS011;8928;51.678;6.074;2022-12-07T10:05:25;38.07;;;12.10;;
17618;SDS011;8928;51.678;6.074;2022-12-07T10:08:16;27.43;;;10.97;;
17618;SDS011;8928;51.678;6.074;2022-12-07T10:11:03;38.10;;;11.30;;
17618;SDS011;8928;51.678;6.074;2022-12-07T10:13:55;27.70;;;10.83;;
17618;SDS011;8928;51.678;6.074;2022-12-07T10:16:58;33.30;;;11.87;;
17618;SDS011;8928;51.678;6.074;2022-12-07T10:19:45;38.80;;;13.63;;
17618;SDS011;8928;51.678;6.074;2022-12-07T10:22:34;31.90;;;13.33;;
17618;SDS011;8928;51.678;6.074;2022-12-07T10:25:21;36.73;;;13.57;;
17618;SDS011;8928;51.678;6.074;2022-12-07T10:28:13;31.43;;;11.53;;
17618;SDS011;8928;51.678;6.074;2022-12-07T10:31:02;31.47;;;11.40;;
17618;SDS011;8928;51.678;6.074;2022-12-07T10:34:01;28.47;;;11.60;;
17618;SDS011;8928;51.678;6.074;2022-12-07T10:36:49;26.27;;;11.80;;
17618;SDS011;8928;51.678;6.074;2022-12-07T10:39:41;28.23;;;10.53;;
17618;SDS011;8928;51.678;6.074;2022-12-07T10:42:30;22.53;;;9.87;;
17618;SDS011;8928;51.678;6.074;2022-12-07T10:45:18;23.93;;;9.73;;
17618;SDS011;8928;51.678;6.074;2022-12-07T10:48:06;19.33;;;8.83;;
17618;SDS011;8928;51.678;6.074;2022-12-07T10:51:00;19.90;;;7.83;;
17618;SDS011;8928;51.678;6.074;2022-12-07T10:53:54;17.53;;;7.60;;
17618;SDS011;8928;51.678;6.074;2022-12-07T10:57:00;18.57;;;7.33;;
17618;SDS011;8928;51.678;6.074;2022-12-07T11:00:09;16.37;;;6.90;;
17618;SDS011;8928;51.678;6.074;2022-12-07T11:03:19;18.43;;;6.40;;
17618;SDS011;8928;51.678;6.074;2022-12-07T11:06:19;17.13;;;6.20;;
17618;SDS011;8928;51.678;6.074;2022-12-07T11:09:26;14.43;;;5.57;;
17618;SDS011;8928;51.678;6.074;2022-12-07T11:12:36;15.17;;;5.97;;
17618;SDS011;8928;51.678;6.074;2022-12-07T11:15:49;11.90;;;4.83;;
17618;SDS011;8928;51.678;6.074;2022-12-07T11:18:49;12.20;;;4.90;;
17618;SDS011;8928;51.678;6.074;2022-12-07T11:21:45;17.03;;;4.83;;
17618;SDS011;8928;51.678;6.074;2022-12-07T11:24:40;10.97;;;4.50;;
17618;SDS011;8928;51.678;6.074;2022-12-07T11:27:37;13.93;;;4.50;;
17618;SDS011;8928;51.678;6.074;2022-12-07T11:30:28;11.50;;;4.00;;
17618;SDS011;8928;51.678;6.074;2022-12-07T11:33:21;11.80;;;4.20;;
17618;SDS011;8928;51.678;6.074;2022-12-07T11:36:25;8.97;;;2.73;;
17618;SDS011;8928;51.678;6.074;2022-12-07T11:39:22;8.63;;;2.40;;
17618;SDS011;8928;51.678;6.074;2022-12-07T11:42:14;9.10;;;2.50;;
17618;SDS011;8928;51.678;6.074;2022-12-07T11:45:13;8.73;;;2.93;;
17618;SDS011;8928;51.678;6.074;2022-12-07T11:48:02;8.37;;;2.60;;
17618;SDS011;8928;51.678;6.074;2022-12-07T11:50:54;11.37;;;2.30;;
17618;SDS011;8928;51.678;6.074;2022-12-07T11:53:44;8.80;;;2.40;;
17618;SDS011;8928;51.678;6.074;2022-12-07T11:56:36;12.37;;;2.40;;
17618;SDS011;8928;51.678;6.074;2022-12-07T11:59:23;13.33;;;2.67;;
17618;SDS011;8928;51.678;6.074;2022-12-07T12:02:18;7.80;;;2.20;;
17618;SDS011;8928;51.678;6.074;2022-12-07T12:05:12;16.67;;;2.73;;
17618;SDS011;8928;51.678;6.074;2022-12-07T12:08:03;13.70;;;2.70;;
17618;SDS011;8928;51.678;6.074;2022-12-07T12:11:02;10.30;;;2.10;;
17618;SDS011;8928;51.678;6.074;2022-12-07T12:14:10;9.93;;;2.40;;
17618;SDS011;8928;51.678;6.074;2022-12-07T12:17:14;9.27;;;2.10;;
17618;SDS011;8928;51.678;6.074;2022-12-07T12:20:19;19.93;;;4.00;;
17618;SDS011;8928;51.678;6.074;2022-12-07T12:23:10;14.80;;;3.60;;
17618;SDS011;8928;51.678;6.074;2022-12-07T12:26:01;12.93;;;2.70;;
17618;SDS011;8928;51.678;6.074;2022-12-07T12:28:51;9.70;;;2.33;;
17618;SDS011;8928;51.678;6.074;2022-12-07T12:31:41;8.60;;;2.00;;
17618;SDS011;8928;51.678;6.074;2022-12-07T12:34:33;8.60;;;1.97;;
17618;SDS011;8928;51.678;6.074;2022-12-07T12:37:39;9.33;;;2.33;;
17618;SDS011;8928;51.678;6.074;2022-12-07T12:40:38;13.73;;;2.53;;
17618;SDS011;8928;51.678;6.074;2022-12-07T12:43:43;10.37;;;2.20;;
17618;SDS011;8928;51.678;6.074;2022-12-07T12:46:45;7.17;;;2.43;;
17618;SDS011;8928;51.678;6.074;2022-12-07T12:49:37;12.83;;;2.23;;
17618;SDS011;8928;51.678;6.074;2022-12-07T12:56:16;10.97;;;2.10;;
17618;SDS011;8928;51.678;6.074;2022-12-07T12:59:18;9.50;;;2.60;;
17618;SDS011;8928;51.678;6.074;2022-12-07T13:02:19;8.80;;;2.40;;
17618;SDS011;8928;51.678;6.074;2022-12-07T13:05:16;9.87;;;2.47;;
17618;SDS011;8928;51.678;6.074;2022-12-07T13:08:10;8.07;;;2.30;;
17618;SDS011;8928;51.678;6.074;2022-12-07T13:11:15;10.00;;;2.40;;
17618;SDS011;8928;51.678;6.074;2022-12-07T13:20:48;12.70;;;2.97;;
17618;SDS011;8928;51.678;6.074;2022-12-07T13:23:37;13.07;;;3.03;;
17618;SDS011;8928;51.678;6.074;2022-12-07T13:26:39;10.57;;;3.00;;
17618;SDS011;8928;51.678;6.074;2022-12-07T13:29:29;10.40;;;2.90;;
17618;SDS011;8928;51.678;6.074;2022-12-07T13:32:25;9.17;;;2.93;;
17618;SDS011;8928;51.678;6.074;2022-12-07T13:35:27;11.07;;;3.27;;
17618;SDS011;8928;51.678;6.074;2022-12-07T13:38:19;12.57;;;3.03;;
17618;SDS011;8928;51.678;6.074;2022-12-07T13:41:12;12.13;;;3.00;;
17618;SDS011;8928;51.678;6.074;2022-12-07T13:44:01;9.93;;;2.50;;
17618;SDS011;8928;51.678;6.074;2022-12-07T13:46:56;11.40;;;2.90;;
17618;SDS011;8928;51.678;6.074;2022-12-07T13:49:49;12.40;;;3.10;;
17618;SDS011;8928;51.678;6.074;2022-12-07T13:52:39;11.87;;;3.10;;
17618;SDS011;8928;51.678;6.074;2022-12-07T13:55:31;9.87;;;3.10;;
17618;SDS011;8928;51.678;6.074;2022-12-07T13:58:19;7.20;;;2.50;;
17618;SDS011;8928;51.678;6.074;2022-12-07T14:01:07;11.67;;;2.53;;
17618;SDS011;8928;51.678;6.074;2022-12-07T14:03:54;8.10;;;2.37;;
17618;SDS011;8928;51.678;6.074;2022-12-07T14:06:46;7.10;;;2.47;;
17618;SDS011;8928;51.678;6.074;2022-12-07T14:09:35;9.80;;;2.80;;
17618;SDS011;8928;51.678;6.074;2022-12-07T14:12:24;12.87;;;2.73;;
17618;SDS011;8928;51.678;6.074;2022-12-07T14:15:15;7.10;;;2.23;;
17618;SDS011;8928;51.678;6.074;2022-12-07T14:21:14;10.53;;;2.33;;
17618;SDS011;8928;51.678;6.074;2022-12-07T14:24:04;7.60;;;2.30;;
17618;SDS011;8928;51.678;6.074;2022-12-07T14:27:00;6.30;;;1.73;;
17618;SDS011;8928;51.678;6.074;2022-12-07T14:29:49;8.37;;;2.03;;
17618;SDS011;8928;51.678;6.074;2022-12-07T14:32:37;7.13;;;1.87;;
17618;SDS011;8928;51.678;6.074;2022-12-07T14:35:25;5.67;;;1.60;;
17618;SDS011;8928;51.678;6.074;2022-12-07T14:38:13;10.30;;;1.70;;
17618;SDS011;8928;51.678;6.074;2022-12-07T14:41:00;8.00;;;1.53;;
17618;SDS011;8928;51.678;6.074;2022-12-07T14:44:01;7.17;;;1.50;;
17618;SDS011;8928;51.678;6.074;2022-12-07T14:46:50;6.80;;;1.73;;
17618;SDS011;8928;51.678;6.074;2022-12-07T14:49:37;5.83;;;1.50;;
17618;SDS011;8928;51.678;6.074;2022-12-07T14:52:26;8.57;;;1.50;;
17618;SDS011;8928;51.678;6.074;2022-12-07T14:55:16;12.30;;;1.80;;
17618;SDS011;8928;51.678;6.074;2022-12-07T14:58:11;5.57;;;1.50;;
17618;SDS011;8928;51.678;6.074;2022-12-07T15:01:00;3.67;;;1.40;;
17618;SDS011;8928;51.678;6.074;2022-12-07T15:03:48;8.87;;;1.93;;
17618;SDS011;8928;51.678;6.074;2022-12-07T15:06:35;4.43;;;1.90;;
17618;SDS011;8928;51.678;6.074;2022-12-07T15:09:22;8.87;;;1.87;;
17618;SDS011;8928;51.678;6.074;2022-12-07T15:12:09;10.23;;;1.87;;
17618;SDS011;8928;51.678;6.074;2022-12-07T15:14:56;7.17;;;1.93;;
17618;SDS011;8928;51.678;6.074;2022-12-07T15:17:43;7.30;;;1.80;;
17618;SDS011;8928;51.678;6.074;2022-12-07T15:20:32;9.00;;;1.67;;
17618;SDS011;8928;51.678;6.074;2022-12-07T15:23:19;5.97;;;1.87;;
17618;SDS011;8928;51.678;6.074;2022-12-07T15:26:06;7.43;;;1.93;;
17618;SDS011;8928;51.678;6.074;2022-12-07T15:28:54;7.70;;;2.10;;
17618;SDS011;8928;51.678;6.074;2022-12-07T15:31:41;9.47;;;1.77;;
17618;SDS011;8928;51.678;6.074;2022-12-07T15:34:28;7.10;;;1.93;;
17618;SDS011;8928;51.678;6.074;2022-12-07T15:37:18;8.00;;;2.00;;
17618;SDS011;8928;51.678;6.074;2022-12-07T15:40:05;6.87;;;1.80;;
17618;SDS011;8928;51.678;6.074;2022-12-07T15:42:53;7.83;;;1.80;;
17618;SDS011;8928;51.678;6.074;2022-12-07T15:45:41;11.23;;;1.90;;
17618;SDS011;8928;51.678;6.074;2022-12-07T15:48:27;8.43;;;2.70;;
17618;SDS011;8928;51.678;6.074;2022-12-07T15:51:14;6.80;;;2.73;;
17618;SDS011;8928;51.678;6.074;2022-12-07T15:54:02;7.10;;;2.27;;
17618;SDS011;8928;51.678;6.074;2022-12-07T15:56:49;7.87;;;2.23;;
17618;SDS011;8928;51.678;6.074;2022-12-07T15:59:36;6.70;;;2.20;;
17618;SDS011;8928;51.678;6.074;2022-12-07T16:02:24;6.67;;;2.60;;
17618;SDS011;8928;51.678;6.074;2022-12-07T16:05:11;6.17;;;2.80;;
17618;SDS011;8928;51.678;6.074;2022-12-07T16:07:59;7.63;;;2.90;;
17618;SDS011;8928;51.678;6.074;2022-12-07T16:10:47;5.77;;;2.57;;
17618;SDS011;8928;51.678;6.074;2022-12-07T16:13:35;6.97;;;3.10;;
17618;SDS011;8928;51.678;6.074;2022-12-07T16:16:22;7.93;;;2.87;;
17618;SDS011;8928;51.678;6.074;2022-12-07T16:19:09;9.40;;;3.40;;
17618;SDS011;8928;51.678;6.074;2022-12-07T16:21:57;8.07;;;2.60;;
17618;SDS011;8928;51.678;6.074;2022-12-07T16:24:44;7.77;;;2.53;;
17618;SDS011;8928;51.678;6.074;2022-12-07T16:27:33;7.10;;;2.50;;
17618;SDS011;8928;51.678;6.074;2022-12-07T16:30:20;6.87;;;2.60;;
17618;SDS011;8928;51.678;6.074;2022-12-07T16:33:07;6.83;;;2.03;;
17618;SDS011;8928;51.678;6.074;2022-12-07T16:35:54;8.67;;;2.60;;
17618;SDS011;8928;51.678;6.074;2022-12-07T16:38:41;7.00;;;2.63;;
17618;SDS011;8928;51.678;6.074;2022-12-07T16:41:29;8.73;;;3.00;;
17618;SDS011;8928;51.678;6.074;2022-12-07T16:44:18;8.57;;;3.13;;
17618;SDS011;8928;51.678;6.074;2022-12-07T16:47:05;7.67;;;2.97;;
17618;SDS011;8928;51.678;6.074;2022-12-07T16:49:52;9.27;;;3.10;;
17618;SDS011;8928;51.678;6.074;2022-12-07T16:52:39;8.30;;;3.47;;
17618;SDS011;8928;51.678;6.074;2022-12-07T16:55:26;9.83;;;3.10;;
17618;SDS011;8928;51.678;6.074;2022-12-07T16:58:13;6.60;;;3.10;;
17618;SDS011;8928;51.678;6.074;2022-12-07T17:01:09;8.30;;;3.37;;
17618;SDS011;8928;51.678;6.074;2022-12-07T17:03:57;7.77;;;4.20;;
17618;SDS011;8928;51.678;6.074;2022-12-07T17:06:45;13.07;;;4.40;;
17618;SDS011;8928;51.678;6.074;2022-12-07T17:09:32;10.87;;;4.20;;
17618;SDS011;8928;51.678;6.074;2022-12-07T17:12:19;8.60;;;3.83;;
17618;SDS011;8928;51.678;6.074;2022-12-07T17:15:07;8.27;;;3.80;;
17618;SDS011;8928;51.678;6.074;2022-12-07T17:18:07;6.87;;;3.77;;